Aérodrome :
LOGIN :

S'inscrire | Disclaimer

   EN    FR    IT 

 










Légende :    VFR   VFR Marginal   IFR   IFR Intensif   IFR Très Intensif
Visi : 
Plafond : 
>= 8 km
>= 3000ft
5 à 8 km
1000 à 3000 ft
1500m à 5 km
500 à 1000 ft
800 à 1500m
200 à 500 ft
< 800m
< 200 ft
Symboles :   Orages  Brouillard  Fortes neiges  Fortes précipitations  Vent > 20 kt
SIGMETs :   Divers  Orages  Givrage  Turbulence  Onde Orograph.  Cendres Volcan.







- Altitude de l'aérodrome : 15 ft
- Code IATA : BHD
- Voir les cartes d'approche


EGAC - George Best Belfast City

DERNIER METAR :
  • 222020Z VRB02KT CAVOK 11/10 Q1014

METARs EXPIRÉS :
  • 221950Z 17003KT CAVOK 11/11 Q1013
  • 221920Z 16003KT CAVOK 12/11 Q1013
  • 221850Z 24004KT 9999 FEW041 13/11 Q1013
  • 221820Z 23005KT 9999 FEW041 14/10 Q1012
  • 221750Z 23004KT 9999 FEW046 15/10 Q1012

TAF TAF EGAC
Valide du 22 à 18h jusqu'au 22 à 21h UTC


221658Z 2218/2221 27005KT 9999 FEW040
ATIS : +44 02890 935 124
Pas de NOTAMs connus pour ce terrain.



MET'MAP, la Météo Aéronautique d'un coup d'oeil ! - Copyright ORBIFLY Décembre 2007 - Disclaimer

ORBIFLY MET'MAP TEAM :

Programmation & Développement : Alexandra Zaïnal
Conception & Développement : Baudouin d'Aumeries
Co-Programmation & Développement : Marc-Olivier Méhu
Soutien technique & logistique : Manuel Goepfert

Contact : metmap@orbifly.com




SOURCES & CREDITS :

   NOAA